Tiempo atmosférico en la estación meteorológica de Navalvillar De Ibor, Cáceres (923 m.)



Fecha
DESCASC
Temp. máxima en grados centígrados (hora)
DESCASC
Temp. mínima en grados centígrados (hora)
DESCASC
Temp. media en grados centígrados
DESCASC
Racha de viento máxima en m/sg (hora)
DESCASC
Velocidad máxima media en intervalos de 10 minutos(hora)
DESCASC
Precipitaciones diarias en mm
DESCASC
Precipitaciones de 00:00 a 06:00 en mm
DESCASC
Precipitaciones de 06:00 a 12:00 en mm
DESCASC
Precipitaciones de 12:00 a 18:00 en mm
DESCASC
Precipitaciones de 18:00 a 24:00 en mm
DESCASC
19-10-2019 14.8 (18:00) 9.3 (00:00) 12.1 15.56 (21:10) 6.39 (21:20) 16.6 0 0 0.8 15.8
03-11-2019 13.3 (14:00) 10.3 (00:00) 11.8 17.22 (09:10) 6.39 (07:00) 3.8 1.6 2 0 0.2
14-11-2019 7.8 (00:00) 3.2 (00:00) 5.5 16.11 (04:50) 6.11 (05:40) 5.2 0 4.8 0.2 0.2
04-11-2019 12.7 (14:40) 8.1 (00:00) 10.4 16.67 (16:00) 5.56 (17:10) 13.4 1 2 1.4 9
13-11-2019 14.5 (15:40) 7.8 (00:00) 11.2 16.67 (03:30) 5 (03:20) 4.2 0.6 3.6 0 0
02-11-2019 14.4 (00:00) 10.9 (00:00) 12.6 15 (06:10) 4.72 (01:40) 9.6 0.2 0.8 5.2 3.4
01-11-2019 17.3 (13:30) 14.3 (00:00) 15.8 12.78 (21:10) 4.72 (21:10) 1.4 0 0 1.4 0
26-10-2019 22.3 (15:50) 10 (00:00) 16.1 6.67 (01:10) 4.44 (01:10) 0 0 0 0 0
12-11-2019 10.9 (16:10) 4.4 (00:00) 7.6 12.5 (23:59) 4.44 (23:20) 0 0 0 0 0
10-11-2019 7.7 (14:40) 3.5 (00:00) 5.6 10.83 (13:40) 4.17 (14:00) 0 0 0 0 0
05-11-2019 11.5 (15:50) 5.7 (00:00) 8.6 10.56 (00:30) 3.89 (00:10) 0 0 0 0 0
08-11-2019 9.4 (15:10) 1.5 (00:00) 5.4 9.72 (18:40) 3.89 (16:50) 0 0 0 0 0
07-11-2019 10.1 (15:30) 3.5 (00:00) 6.8 11.11 (18:30) 3.89 (15:10) 2.4 0.8 1.2 0 0.4
18-10-2019 18.2 (16:30) 10.9 (00:00) 14.6 9.17 (13:10) 3.61 (12:50) 0.2 0 0.2 0 0
15-11-2019 6.5 (14:10) 0.1 (00:00) 3.3 10 (00:10) 3.61 (04:40) 0 0 0 0 0
20-10-2019 11.1 (17:10) 5.8 (00:00) 8.5 8.61 (00:50) 3.61 (00:10) 2.6 0.4 2.2 0 0
09-11-2019 9.8 (13:10) 1.4 (00:00) 5.6 8.61 (20:00) 3.33 (19:00) 3.6 0 0 3.2 0.4
25-10-2019 21.2 (15:50) 7.2 (00:00) 14.2 4.72 (23:50) 3.06 (23:40) 0 0 0 0 0
27-10-2019 23 (14:40) 11.2 (00:00) 17.1 4.17 (06:30) 3.06 (06:20) 0 0 0 0 0
23-10-2019 8.1 (15:40) 5.8 (00:00) 7 7.5 (19:30) 2.78 (19:30) 3.4 0.2 2 1 0.2
22-10-2019 13 (16:40) 5.8 (00:00) 9.4 6.67 (16:50) 2.78 (16:40) 2.2 0 2 0.2 0
06-11-2019 12.1 (15:40) 3.7 (00:00) 7.9 6.67 (23:20) 2.78 (20:00) 0 0 0 0 0
16-11-2019 8.3 (14:50) -0.7 (-00:0) 3.8 6.11 (14:40) 2.78 (14:10) 0 0 0 0 0
21-10-2019 12.3 (17:40) 4.6 (00:00) 8.5 5.28 (13:50) 2.78 (22:00) 4.2 0 0 4.2 0
31-10-2019 18.5 (12:10) 13.8 (07:30) 16.2 6.67 (19:40) 2.5 (08:30) 0 0 0 0 0
30-10-2019 18.8 (13:00) 11.3 (00:00) 15 6.39 (17:10) 2.5 (18:10) 0 0 0 0 0
24-10-2019 15.2 (17:10) 5.1 (00:00) 10.1 5.28 (01:50) 2.22 (06:00) 0 0 0 0 0
11-11-2019 10.8 (17:00) 5 (00:00) 7.9 5 (15:00) 2.22 (05:20) 0 0 0 0 0
28-10-2019 19.6 (15:10) 10.6 (00:00) 15.1 5.83 (15:40) 2.22 (15:40) 0 0 0 0 0
29-10-2019 18.6 (16:10) 11.2 (00:00) 14.9 4.44 (04:50) 1.94 (02:00) 0.8 0 0.4 0.4 0

Gráficas

Temp. máximas Temp. mínimas Temp. medias Precipitaciones Rachas de viento máximas Velocidades máximas media en intervalos de 10 minutos

Datos horarios

Fecha y hora oficial Temperatura (ºC) Velocidad del viento (km/h) Dirección del viento Racha (km/h) Dirección de racha Precipitación (mm) Presión (hPa) Tendencia (hPa) Humedad (%)
2019-11-16 23:00:00 3.7 7 Sudoeste 17 Sur 0 -- -- 76
2019-11-16 22:00:00 3.6 7 Sudoeste 19 Sudoeste 0 -- -- 79
2019-11-16 21:00:00 4.1 7 Sudoeste 17 Oeste 0 -- -- 76
2019-11-16 20:00:00 4.1 8 Sudoeste 18 Oeste 0 -- -- 74
2019-11-16 19:00:00 4.1 7 Sudoeste 14 Oeste 0 -- -- 70
2019-11-16 18:00:00 5.1 8 Sudoeste 19 Sudoeste 0 -- -- 65
2019-11-16 17:00:00 6.1 7 Oeste 21 Oeste 0 -- -- 60
2019-11-16 16:00:00 8 7 Oeste 22 Oeste 0 -- -- 59
2019-11-16 15:00:00 8.3 8 Oeste 22 Oeste 0 -- -- 59
2019-11-16 14:00:00 8.2 8 Oeste 19 Oeste 0 -- -- 52
2019-11-16 13:00:00 7.5 6 Oeste 14 Oeste 0 -- -- 57
2019-11-16 12:00:00 6.2 5 Noroeste 11 Oeste 0 -- -- 61
2019-11-16 11:00:00 3.8 2 Sur 5 Sudeste 0 -- -- 80
2019-11-16 10:00:00 0.3 4 Sur 6 Sudeste 0 -- -- 90
2019-11-16 09:00:00 0.2 4 Sudeste 11 Sudeste 0 -- -- 90
2019-11-16 08:00:00 1.3 3 Sudeste 16 Sudeste 0 -- -- 77
2019-11-16 07:00:00 0.7 5 Sudeste 10 Sur 0 -- -- 86
2019-11-16 06:00:00 0.9 7 Sur 12 Sur 0 -- -- 84
2019-11-16 05:00:00 0.2 4 Sudeste 8 Este 0 -- -- 92
2019-11-16 04:00:00 -0.1 3 Sudeste 9 Sur 0 -- -- 91
2019-11-16 03:00:00 -0.7 4 Sur 6 Sur 0 -- -- 94
2019-11-16 02:00:00 -0.4 4 Sur 6 Sudeste 0 -- -- 93
2019-11-16 01:00:00 0.1 4 Sudoeste 10 Sudoeste 0 -- -- 90
2019-11-16 00:00:00 0.3 4 Sur 10 Sudeste 0 -- -- 90
2019-11-15 23:00:00 0.6 6 Sur 10 Sudeste 0 -- -- 88
2019-11-15 22:00:00 0.7 4 Sur 10 Sudoeste 0 -- -- 85
2019-11-15 21:00:00 1.6 5 Sudoeste 12 Sudoeste 0 -- -- 81
2019-11-15 20:00:00 2.2 5 Sudoeste 15 Sudoeste 0 -- -- 77
2019-11-15 19:00:00 2.6 6 Sudoeste 14 Sudoeste 0 -- -- 73
2019-11-15 18:00:00 3.8 4 Sudoeste 19 Oeste 0 -- -- 71
2019-11-15 17:00:00 4.8 8 Oeste 25 Noroeste 0 -- -- 69
2019-11-15 16:00:00 6.1 9 Oeste 23 Oeste 0 -- -- 71
2019-11-15 15:00:00 5.8 5 Oeste 22 Oeste 0 -- -- 72
2019-11-15 14:00:00 5.6 6 Oeste 18 Oeste 0 -- -- 73
2019-11-15 13:00:00 5.6 6 Oeste 17 Noroeste 0 -- -- 70
2019-11-15 12:00:00 4.8 5 Noroeste 12 Oeste 0 -- -- 75
2019-11-15 11:00:00 3.4 5 Oeste 12 Oeste 0 -- -- 79
2019-11-15 10:00:00 0.7 5 Sudoeste 12 Sudoeste 0 -- -- 89
2019-11-15 09:00:00 0.2 3 Sur 14 Sudoeste 0 -- -- 91
2019-11-15 08:00:00 0.1 6 Sudoeste 18 Sudoeste 0 -- -- 90
2019-11-15 07:00:00 0.4 7 Sudoeste 28 Oeste 0 -- -- 88
2019-11-15 06:00:00 0.7 7 Sudoeste 22 Sudoeste 0 -- -- 86
2019-11-15 05:00:00 1 8 Sudoeste 31 Oeste 0 -- -- 86
2019-11-15 04:00:00 1.2 6 Oeste 26 Oeste 0 -- -- 88
2019-11-15 03:00:00 1.8 8 Oeste 35 Oeste 0 -- -- 84
2019-11-15 02:00:00 2.1 10 Oeste 29 Sudoeste 0 -- -- 84
2019-11-15 01:00:00 2.6 10 Oeste 36 Oeste 0 -- -- 86
2019-11-15 00:00:00 3.2 11 Sudoeste 31 Oeste 0 -- -- 84
2019-11-14 23:00:00 3.7 12 Oeste 33 Noroeste 0 -- -- 85
2019-11-14 22:00:00 4.2 13 Oeste 41 Noroeste 0.2 -- -- 83
2019-11-14 21:00:00 4.6 11 Oeste 33 Oeste 0 -- -- 84
2019-11-14 20:00:00 4.9 13 Oeste 36 Oeste 0 -- -- 84
2019-11-14 19:00:00 4.9 13 Oeste 44 Noroeste 0 -- -- 90
2019-11-14 18:00:00 4.9 14 Oeste 42 Oeste 0.2 -- -- 89
2019-11-14 17:00:00 5.5 15 Oeste 44 Sudoeste 0 -- -- 80
2019-11-14 16:00:00 5.8 13 Oeste 40 Noroeste 0 -- -- 77
2019-11-14 15:00:00 6.4 12 Oeste 33 Noroeste 0 -- -- 77
2019-11-14 14:00:00 6.3 10 Oeste 36 Oeste 0 -- -- 71
2019-11-14 13:00:00 6 11 Oeste 34 Oeste 0 -- -- 82
2019-11-14 12:00:00 4.5 13 Oeste 33 Oeste 0 -- -- 92
2019-11-14 11:00:00 3.9 12 Oeste 28 Noroeste 0.2 -- -- 96
2019-11-14 10:00:00 4.4 13 Oeste 35 Oeste 0.2 -- -- 100
2019-11-14 09:00:00 4.8 15 Oeste 54 Noroeste 3.8 -- -- 100
2019-11-14 08:00:00 6.3 15 Oeste 44 Oeste 0 -- -- 99
2019-11-14 07:00:00 6.4 17 Oeste 52 Oeste 0.6 -- -- 100
2019-11-14 06:00:00 6.5 18 Oeste 51 Sudoeste 0 -- -- 96
2019-11-14 05:00:00 6.3 15 Oeste 58 Oeste 0 -- -- 94
2019-11-14 04:00:00 6 14 Sudoeste 40 Oeste 0 -- -- 95
2019-11-14 03:00:00 5.8 10 Oeste 30 Noroeste 0 -- -- 92
2019-11-14 02:00:00 6.1 6 Oeste 22 Sudoeste 0 -- -- 95
2019-11-14 01:00:00 6.8 7 Oeste 21 Sudoeste 0 -- -- 95
2019-11-14 00:00:00 7.8 4 Noroeste 16 Noroeste 0 -- -- 93
2019-11-13 23:00:00 8.5 6 Sudoeste 21 Oeste 0 -- -- 92
2019-11-13 22:00:00 9.2 4 Oeste 22 Oeste 0 -- -- 89
2019-11-13 21:00:00 10.4 10 Sudoeste 32 Sudoeste 0 -- -- 84
2019-11-13 20:00:00 11.6 12 Oeste 35 Oeste 0 -- -- 85
2019-11-13 19:00:00 12 8 Sudoeste 34 Sudoeste 0 -- -- 81
2019-11-13 18:00:00 12.6 11 Sudoeste 32 Oeste 0 -- -- 74
2019-11-13 17:00:00 13 9 Oeste 31 Oeste 0 -- -- 74
2019-11-13 16:00:00 14.1 13 Oeste 37 Oeste 0 -- -- 70
2019-11-13 15:00:00 13.7 10 Oeste 27 Oeste 0 -- -- 71
2019-11-13 14:00:00 13.3 10 Oeste 28 Noroeste 0 -- -- 76
2019-11-13 13:00:00 12.8 9 Oeste 26 Oeste 0 -- -- 83
2019-11-13 12:00:00 11.6 8 Oeste 25 Oeste 0 -- -- 92
2019-11-13 11:00:00 10.2 6 Oeste 22 Oeste 0 -- -- 97
2019-11-13 10:00:00 10.3 7 Oeste 26 Oeste 0 -- -- 100
2019-11-13 09:00:00 10.1 10 Oeste 31 Sudoeste 0 -- -- 100
2019-11-13 08:00:00 9.9 11 Sudoeste 33 Oeste 1.6 -- -- 100
2019-11-13 07:00:00 9.9 12 Oeste 39 Sudoeste 2 -- -- 100
2019-11-13 06:00:00 9.6 14 Oeste 37 Oeste 0.4 -- -- 100
2019-11-13 05:00:00 9.3 14 Oeste 46 Sudoeste 0 -- -- 100
2019-11-13 04:00:00 9 14 Oeste 60 Oeste 0.2 -- -- 100
2019-11-13 03:00:00 8.8 16 Oeste 45 Sudoeste 0 -- -- 100
2019-11-13 02:00:00 8.8 15 Oeste 43 Sur 0 -- -- 99
2019-11-13 01:00:00 8.7 11 Oeste 36 Sur 0 -- -- 100
2019-11-13 00:00:00 8.6 12 Sudoeste 45 Oeste 0 -- -- 100
2019-11-12 23:00:00 8.5 15 Sudoeste 36 Oeste 0 -- -- 97
2019-11-12 22:00:00 8.8 12 Sudoeste 38 Sudoeste 0 -- -- 92
2019-11-12 21:00:00 9.3 14 Sudoeste 33 Sudoeste 0 -- -- 82
2019-11-12 20:00:00 9.4 13 Oeste 32 Oeste 0 -- -- 77
2019-11-12 19:00:00 9.4 8 Oeste 20 Oeste 0 -- -- 76
2019-11-12 18:00:00 9.2 8 Sudoeste 19 Oeste 0 -- -- 72
2019-11-12 17:00:00 9.2 5 Oeste 17 Noroeste 0 -- -- 69
2019-11-12 16:00:00 10.8 6 Oeste 19 Oeste 0 -- -- 64
2019-11-12 15:00:00 10.1 8 Sudoeste 19 Oeste 0 -- -- 72
2019-11-12 14:00:00 8.6 4 Noroeste 11 Oeste 0 -- -- 85
2019-11-12 13:00:00 7.9 6 Oeste 13 Noroeste 0 -- -- 91
2019-11-12 12:00:00 7.8 5 Oeste 13 Oeste 0 -- -- 94
2019-11-12 11:00:00 7.3 5 Sudoeste 13 Sudoeste 0 -- -- 98
2019-11-12 10:00:00 6.5 0 Calma 6 Noroeste 0 -- -- 100
2019-11-12 09:00:00 5.1 0 Calma 4 Sudoeste 0 -- -- 100
2019-11-12 08:00:00 4.4 0 Calma 5 Sur 0 -- -- 100
2019-11-12 07:00:00 5 3 Sudoeste 6 Sur 0 -- -- 100
2019-11-12 06:00:00 4.8 3 Sur 6 Sur 0 -- -- 100
2019-11-12 05:00:00 4.9 4 Sur 6 Sur 0 -- -- 99
2019-11-12 04:00:00 5.4 4 Sudeste 8 Sudoeste 0 -- -- 99
2019-11-12 03:00:00 5.5 2 Sur 7 Oeste 0 -- -- 97
2019-11-12 02:00:00 6.1 4 Sudeste 10 Este 0 -- -- 96
2019-11-12 01:00:00 6.2 4 Sudeste 13 Sudeste 0 -- -- 94
2019-11-12 00:00:00 5.8 6 Sur 9 Sudeste 0 -- -- 98
2019-11-11 23:00:00 6 5 Sur 9 Sur 0 -- -- 99
2019-11-11 22:00:00 6.4 5 Sur 8 Sur 0 -- -- 99
2019-11-11 21:00:00 6.6 5 Sur 7 Sur 0 -- -- 99
2019-11-11 20:00:00 7.2 5 Sur 10 Oeste 0 -- -- 97
2019-11-11 19:00:00 8.3 4 Sudoeste 10 Sudoeste 0 -- -- 96
2019-11-11 18:00:00 9.9 4 Sudoeste 13 Sudoeste 0 -- -- 93
2019-11-11 17:00:00 10.8 4 Sudoeste 15 Oeste 0 -- -- 94
2019-11-11 16:00:00 10.3 6 Oeste 18 Sudoeste 0 -- -- 96
2019-11-11 15:00:00 9.7 8 Oeste 18 Oeste 0 -- -- 99
2019-11-11 14:00:00 8.8 4 Oeste 11 Oeste 0 -- -- 100
2019-11-11 13:00:00 8.2 0 Calma 9 Oeste 0 -- -- 100
2019-11-11 12:00:00 7.6 3 Oeste 12 Oeste 0 -- -- 100
2019-11-11 11:00:00 7.1 3 Sudoeste 12 Oeste 0 -- -- 100
2019-11-11 10:00:00 6.9 4 Noroeste 10 Sudoeste 0 -- -- 100
2019-11-11 09:00:00 6.2 3 Oeste 14 Sur 0 -- -- 98
2019-11-11 08:00:00 5.9 4 Sudoeste 12 Sur 0 -- -- 97
2019-11-11 07:00:00 5.5 4 Sudoeste 10 Sudoeste 0 -- -- 95
2019-11-11 06:00:00 5.2 5 Sudoeste 15 Sudoeste 0 -- -- 93
2019-11-11 05:00:00 5.4 7 Sudoeste 12 Oeste 0 -- -- 89
2019-11-11 04:00:00 5.2 0 Calma 6 Noroeste 0 -- -- 92
2019-11-11 03:00:00 5.2 0 Calma 9 Sur 0 -- -- 91
2019-11-11 02:00:00 5.2 3 Sudoeste 7 Sur 0 -- -- 90
2019-11-11 01:00:00 5.1 3 Sudoeste 13 Sudoeste 0 -- -- 90
2019-11-11 00:00:00 5 4 Sudoeste 10 Sudoeste 0 -- -- 91
2019-11-10 23:00:00 4.9 6 Sudoeste 15 Sudoeste 0 -- -- 91
2019-11-10 22:00:00 4.5 7 Sudoeste 17 Oeste 0 -- -- 91
2019-11-10 21:00:00 4.8 6 Oeste 22 Noroeste 0 -- -- 89
2019-11-10 20:00:00 5.2 9 Oeste 27 Noroeste 0 -- -- 89
2019-11-10 19:00:00 5.4 9 Oeste 33 Noroeste 0 -- -- 86
2019-11-10 18:00:00 5.7 13 Oeste 36 Noroeste 0 -- -- 84
2019-11-10 17:00:00 6.1 13 Oeste 35 Oeste 0 -- -- 80
2019-11-10 16:00:00 6.7 14 Oeste 37 Noroeste 0 -- -- 77
2019-11-10 15:00:00 7.4 15 Noroeste 33 Oeste 0 -- -- 72
2019-11-10 14:00:00 7.5 15 Oeste 39 Noroeste 0 -- -- 69
2019-11-10 13:00:00 7.1 11 Noroeste 34 Oeste 0 -- -- 73
2019-11-10 12:00:00 7 10 Noroeste 30 Oeste 0 -- -- 74
2019-11-10 11:00:00 6.6 12 Noroeste 30 Noroeste 0 -- -- 74
2019-11-10 10:00:00 4.5 6 Oeste 18 Oeste 0 -- -- 79
2019-11-10 09:00:00 3.9 8 Oeste 25 Noroeste 0 -- -- 77
2019-11-10 08:00:00 3.5 8 Oeste 23 Noroeste 0 -- -- 78
2019-11-10 07:00:00 3.8 4 Oeste 24 Oeste 0 -- -- 81
2019-11-10 06:00:00 4.4 7 Oeste 29 Oeste 0 -- -- 80
2019-11-10 05:00:00 4.7 9 Oeste 25 Oeste 0 -- -- 85
2019-11-10 04:00:00 5.2 7 Oeste 27 Oeste 0 -- -- 93
2019-11-10 03:00:00 5.8 11 Sudoeste 26 Oeste 0 -- -- 93
2019-11-10 02:00:00 6.3 9 Oeste 27 Noroeste 0 -- -- 96
2019-11-10 01:00:00 6.4 6 Oeste 23 Noroeste 0 -- -- 96
2019-11-10 00:00:00 7.2 9 Oeste 24 Sudoeste 0 -- -- 98
2019-11-09 23:00:00 8 7 Oeste 24 Oeste 0 -- -- 100
2019-11-09 22:00:00 8.2 9 Sudoeste 26 Oeste 0 -- -- 97
2019-11-09 21:00:00 8.7 11 Oeste 28 Sudoeste 0 -- -- 100
2019-11-09 20:00:00 8.7 12 Sudoeste 31 Oeste 0.2 -- -- 99
2019-11-09 19:00:00 8.4 12 Sudoeste 30 Oeste 0.2 -- -- 97
2019-11-09 18:00:00 8.1 11 Oeste 29 Oeste 2 -- -- 96
2019-11-09 17:00:00 8 9 Oeste 26 Oeste 0.8 -- -- 95
2019-11-09 16:00:00 7.7 10 Sudoeste 28 Noroeste 0.4 -- -- 90
2019-11-09 15:00:00 8.9 5 Oeste 23 Sudoeste 0 -- -- 78
2019-11-09 14:00:00 9.2 9 Oeste 19 Noroeste 0 -- -- 80
2019-11-09 13:00:00 9.7 6 Oeste 15 Oeste 0 -- -- 72
2019-11-09 12:00:00 7.9 7 Oeste 17 Oeste 0 -- -- 72
2019-11-09 11:00:00 7.3 4 Oeste 10 Oeste 0 -- -- 72
2019-11-09 10:00:00 4.3 2 Sudoeste 13 Sudoeste 0 -- -- 84
2019-11-09 09:00:00 2.5 4 Sudoeste 11 Sudoeste 0 -- -- 89
2019-11-09 08:00:00 2.3 5 Sudoeste 12 Sudoeste 0 -- -- 87
2019-11-09 07:00:00 2.9 6 Sudoeste 16 Oeste 0 -- -- 85
2019-11-09 06:00:00 2.4 5 Sudoeste 11 Sudoeste 0 -- -- 89
2019-11-09 05:00:00 1.4 3 Sudeste 10 Sur 0 -- -- 94
2019-11-09 04:00:00 1.4 4 Sur 10 Sudoeste 0 -- -- 94
2019-11-09 03:00:00 1.4 5 Sudoeste 10 Sudoeste 0 -- -- 95
2019-11-09 02:00:00 1.8 4 Sudoeste 9 Sudoeste 0 -- -- 92
2019-11-09 01:00:00 2.8 5 Sudoeste 12 Sudoeste 0 -- -- 88
2019-11-09 00:00:00 2.7 5 Sudoeste 14 Sur 0 -- -- 88
2019-11-08 23:00:00 4.1 6 Sudoeste 14 Oeste 0 -- -- 81
2019-11-08 22:00:00 4.6 6 Sudoeste 19 Noroeste 0 -- -- 78
2019-11-08 21:00:00 5 6 Sudoeste 19 Oeste 0 -- -- 73
2019-11-08 20:00:00 5.4 6 Sudoeste 27 Oeste 0 -- -- 72
2019-11-08 19:00:00 6.1 8 Oeste 35 Noroeste 0 -- -- 71
2019-11-08 18:00:00 6.9 11 Oeste 32 Noroeste 0 -- -- 69
2019-11-08 17:00:00 7.8 11 Noroeste 33 Noroeste 0 -- -- 63
2019-11-08 16:00:00 9.3 10 Oeste 28 Oeste 0 -- -- 59
2019-11-08 15:00:00 9.3 8 Oeste 22 Oeste 0 -- -- 64
2019-11-08 14:00:00 8.3 9 Oeste 24 Noroeste 0 -- -- 65
2019-11-08 13:00:00 7.4 8 Oeste 23 Oeste 0 -- -- 68
2019-11-08 12:00:00 6.6 6 Oeste 15 Noroeste 0 -- -- 75
2019-11-08 11:00:00 5.3 5 Oeste 15 Oeste 0 -- -- 81
2019-11-08 10:00:00 2.7 6 Sudoeste 16 Sudoeste 0 -- -- 89
2019-11-08 09:00:00 1.6 6 Sudoeste 17 Sudoeste 0 -- -- 92
2019-11-08 08:00:00 1.6 6 Sudoeste 18 Noroeste 0 -- -- 93
2019-11-08 07:00:00 1.8 7 Sudoeste 23 Oeste 0 -- -- 93
2019-11-08 06:00:00 2.4 8 Oeste 28 Sudoeste 0 -- -- 89
2019-11-08 05:00:00 3 7 Sudoeste 22 Noroeste 0 -- -- 87
2019-11-08 04:00:00 3.4 9 Oeste 28 Oeste 0 -- -- 92
2019-11-08 03:00:00 3.3 6 Oeste 18 Oeste 0 -- -- 89
2019-11-08 02:00:00 3.4 5 Noroeste 22 Oeste 0 -- -- 94
2019-11-08 01:00:00 3.6 8 Oeste 25 Norte 0 -- -- 92
2019-11-08 00:00:00 3.5 8 Oeste 25 Noroeste 0 -- -- 90
2019-11-07 23:00:00 4.1 12 Oeste 27 Oeste 0 -- -- 87
2019-11-07 22:00:00 4.2 8 Oeste 32 Oeste 0 -- -- 88
2019-11-07 21:00:00 5.1 12 Oeste 32 Oeste 0 -- -- 87
2019-11-07 20:00:00 5.6 8 Oeste 27 Oeste 0.2 -- -- 90
2019-11-07 19:00:00 6.1 6 Oeste 40 Oeste 0.2 -- -- 90
2019-11-07 18:00:00 8.4 10 Oeste 30 Oeste 0 -- -- 65
2019-11-07 17:00:00 8.6 6 Oeste 28 Noroeste 0 -- -- 67
2019-11-07 16:00:00 9.8 11 Oeste 37 Noroeste 0 -- -- 64
2019-11-07 15:00:00 9.6 12 Noroeste 32 Noroeste 0 -- -- 65
2019-11-07 14:00:00 9.7 12 Noroeste 31 Noroeste 0 -- -- 69
2019-11-07 13:00:00 9.4 10 Oeste 32 Noroeste 0 -- -- 66
2019-11-07 12:00:00 9.6 8 Oeste 31 Sudoeste 0 -- -- 74
2019-11-07 11:00:00 8.5 12 Oeste 30 Oeste 0 -- -- 79
2019-11-07 10:00:00 7.6 7 Sudoeste 19 Oeste 0 -- -- 92
2019-11-07 09:00:00 9.2 9 Oeste 29 Oeste 0.4 -- -- 100
2019-11-07 08:00:00 9.6 7 Oeste 26 Noroeste 0.4 -- -- 100
2019-11-07 07:00:00 10 8 Oeste 24 Oeste 0.4 -- -- 100
2019-11-07 06:00:00 10 8 Oeste 24 Oeste 0 -- -- 100
2019-11-07 05:00:00 9.9 7 Oeste 25 Sudoeste 0.6 -- -- 100
2019-11-07 04:00:00 10 12 Sudoeste 28 Oeste 0.2 -- -- 99
2019-11-07 03:00:00 9.7 8 Oeste 27 Oeste 0 -- -- 99
2019-11-07 02:00:00 9.6 8 Oeste 32 Oeste 0 -- -- 97
2019-11-07 01:00:00 9.3 8 Oeste 29 Oeste 0 -- -- 97
2019-11-07 00:00:00 9.2 8 Sudoeste 24 Sudoeste 0 -- -- 95
2019-11-06 23:00:00 9.2 7 Sudoeste 21 Sudoeste 0 -- -- 93
2019-11-06 22:00:00 9 10 Sudoeste 19 Sudoeste 0 -- -- 90
2019-11-06 21:00:00 8.8 8 Sudoeste 22 Sudoeste 0 -- -- 85
2019-11-06 20:00:00 8.8 10 Oeste 22 Sudoeste 0 -- -- 83
2019-11-06 19:00:00 8.7 6 Sudoeste 15 Oeste 0 -- -- 81
2019-11-06 18:00:00 9.5 5 Sudoeste 19 Noroeste 0 -- -- 76
2019-11-06 17:00:00 10.5 7 Oeste 20 Noroeste 0 -- -- 71
2019-11-06 16:00:00 12.1 6 Oeste 22 Oeste 0 -- -- 65
2019-11-06 15:00:00 11.5 7 Oeste 18 Oeste 0 -- -- 68
2019-11-06 14:00:00 10 6 Oeste 16 Oeste 0 -- -- 78
2019-11-06 13:00:00 9.4 6 Oeste 17 Noroeste 0 -- -- 76
2019-11-06 12:00:00 8.4 6 Oeste 15 Oeste 0 -- -- 80
2019-11-06 11:00:00 7.3 4 Oeste 9 Sudoeste 0 -- -- 82
2019-11-06 10:00:00 6.4 4 Noroeste 10 Noroeste 0 -- -- 91
2019-11-06 09:00:00 4.9 3 Sudoeste 10 Oeste 0 -- -- 97
2019-11-06 08:00:00 4.3 4 Sudoeste 8 Sudoeste 0 -- -- 97
2019-11-06 07:00:00 4.1 4 Sudoeste 12 Sudoeste 0 -- -- 95
2019-11-06 06:00:00 4.3 3 Sudoeste 12 Sur 0 -- -- 95
2019-11-06 05:00:00 4.1 5 Sudoeste 9 Sudoeste 0 -- -- 97
2019-11-06 04:00:00 4.9 6 Sudoeste 12 Sudoeste 0 -- -- 96
2019-11-06 03:00:00 5.8 6 Sudoeste 21 Oeste 0 -- -- 92
2019-11-06 02:00:00 6.3 7 Sudoeste 20 Oeste 0 -- -- 91
2019-11-06 01:00:00 6.6 8 Sudoeste 14 Sur 0 -- -- 90
2019-11-06 00:00:00 7 10 Sudoeste 26 Oeste 0 -- -- 88
2019-11-05 23:00:00 7.2 7 Sudoeste 23 Oeste 0 -- -- 88
2019-11-05 22:00:00 7.4 6 Sudoeste 21 Oeste 0 -- -- 87
2019-11-05 21:00:00 7.9 7 Oeste 22 Sudoeste 0 -- -- 84
2019-11-05 20:00:00 9.2 8 Sudoeste 27 Noroeste 0 -- -- 79
2019-11-05 19:00:00 9.6 8 Sudoeste 25 Sur 0 -- -- 78
2019-11-05 18:00:00 9.9 9 Oeste 29 Oeste 0 -- -- 76
2019-11-05 17:00:00 10.7 10 Oeste 35 Noroeste 0 -- -- 75
2019-11-05 16:00:00 11.3 11 Oeste 32 Noroeste 0 -- -- 76
2019-11-05 15:00:00 10.8 11 Oeste 32 Oeste 0 -- -- 76
2019-11-05 14:00:00 9.9 10 Oeste 33 Oeste 0 -- -- 80
2019-11-05 13:00:00 9.4 10 Oeste 30 Oeste 0 -- -- 88
2019-11-05 12:00:00 8.7 12 Oeste 29 Oeste 0 -- -- 89
2019-11-05 11:00:00 7.6 11 Oeste 27 Sur 0 -- -- 92
2019-11-05 10:00:00 6.8 11 Oeste 28 Noroeste 0 -- -- 95
2019-11-05 09:00:00 6.4 12 Oeste 28 Oeste 0 -- -- 94
2019-11-05 08:00:00 5.8 10 Oeste 26 Oeste 0 -- -- 97
2019-11-05 07:00:00 5.9 8 Oeste 27 Oeste 0 -- -- 97
2019-11-05 06:00:00 6 9 Oeste 26 Oeste 0 -- -- 98
2019-11-05 05:00:00 6.3 7 Oeste 31 Oeste 0 -- -- 97
2019-11-05 04:00:00 6.6 9 Oeste 27 Oeste 0 -- -- 96
2019-11-05 03:00:00 7 12 Oeste 28 Oeste -- -- -- 96
2019-11-05 02:00:00 7.3 13 Oeste 36 Oeste 0 -- -- 94
2019-11-05 01:00:00 7.7 13 Oeste 38 Oeste 0 -- -- 93
2019-11-05 00:00:00 8.1 13 Oeste 39 Sudoeste 0 -- -- 92
2019-11-04 23:00:00 8.6 15 Oeste 40 Oeste 0 -- -- 93
2019-11-04 22:00:00 9.3 18 Oeste 44 Sudoeste 0 -- -- 92
2019-11-04 21:00:00 9.8 20 Oeste 58 Oeste 0.4 -- -- 94
2019-11-04 20:00:00 10.6 20 Sudoeste 51 Sur 5.6 -- -- 96
2019-11-04 19:00:00 11.2 20 Oeste 50 Sudoeste 3 -- -- 98
2019-11-04 18:00:00 11.4 17 Oeste 54 Oeste 0.6 -- -- 93
2019-11-04 17:00:00 11.7 16 Oeste 44 Sur 0.8 -- -- 92
2019-11-04 16:00:00 12.3 17 Sudoeste 60 Oeste 0 -- -- 89
2019-11-04 15:00:00 12.4 14 Oeste 49 Oeste 0 -- -- 85
2019-11-04 14:00:00 12.2 13 Oeste 42 Oeste 0 -- -- 90
2019-11-04 13:00:00 11.7 9 Oeste 40 Oeste 0 -- -- 89
2019-11-04 12:00:00 11.4 11 Oeste 39 Oeste 0.2 -- -- 89
2019-11-04 11:00:00 10.8 14 Oeste 43 Sudoeste 0 -- -- 93
2019-11-04 10:00:00 10.5 14 Oeste 46 Sudoeste 0.2 -- -- 96
2019-11-04 09:00:00 10.4 16 Oeste 39 Oeste 0.6 -- -- 98
2019-11-04 08:00:00 10.3 13 Sudoeste 44 Sudoeste 0.8 -- -- 97
2019-11-04 07:00:00 10.2 11 Sudoeste 42 Oeste 0.2 -- -- 98
2019-11-04 06:00:00 10.4 11 Oeste 40 Oeste 0.2 -- -- 94
2019-11-04 05:00:00 10.8 11 Oeste 41 Sudoeste 0.6 -- -- 99
2019-11-04 04:00:00 10.8 17 Oeste 50 Oeste 0.2 -- -- 99
2019-11-04 03:00:00 10.8 16 Sudoeste 40 Oeste 0 -- -- 99
2019-11-04 02:00:00 11 18 Sudoeste 45 Oeste 0 -- -- 98
2019-11-04 01:00:00 10.9 12 Oeste 34 Sudoeste 0 -- -- 98
2019-11-04 00:00:00 10.9 12 Oeste 36 Sudoeste 0.2 -- -- 98
2019-11-03 23:00:00 11.1 13 Sudoeste 32 Oeste 0 -- -- 95
2019-11-03 22:00:00 11.1 10 Sudoeste 40 Sudoeste 0 -- -- 93
2019-11-03 21:00:00 11.8 14 Sudoeste 37 Oeste 0 -- -- 89
2019-11-03 20:00:00 12.2 14 Oeste 41 Oeste 0 -- -- 82
2019-11-03 19:00:00 11.6 10 Sudoeste 24 Oeste 0 -- -- 79
2019-11-03 18:00:00 11.7 9 Oeste 38 Noroeste 0 -- -- 76
2019-11-03 17:00:00 12.4 13 Oeste 37 Oeste 0 -- -- 71
2019-11-03 16:00:00 12.8 17 Oeste 47 Oeste 0 -- -- 66
2019-11-03 15:00:00 12.7 14 Oeste 39 Oeste 0 -- -- 71
2019-11-03 14:00:00 13.3 13 Oeste 38 Noroeste 0 -- -- 71
2019-11-03 13:00:00 12 14 Noroeste 34 Oeste 0 -- -- 77
2019-11-03 12:00:00 11.9 12 Oeste 37 Oeste 0 -- -- 96
2019-11-03 11:00:00 12.1 13 Oeste 42 Oeste 0 -- -- 96
2019-11-03 10:00:00 11.5 13 Oeste 62 Oeste 0 -- -- 99
2019-11-03 09:00:00 11.2 13 Oeste 54 Oeste 0.6 -- -- 100
2019-11-03 08:00:00 11 15 Oeste 51 Oeste 0.6 -- -- 100
2019-11-03 07:00:00 11 23 Oeste 54 Oeste 0.8 -- -- 100
2019-11-03 06:00:00 10.7 18 Sudoeste 53 Sur 0.8 -- -- 100
2019-11-03 05:00:00 10.4 16 Sudoeste 50 Oeste 0 -- -- 100
2019-11-03 04:00:00 10.6 21 Oeste 59 Sudoeste 0 -- -- 97
2019-11-03 03:00:00 10.4 18 Oeste 53 Sudoeste 0 -- -- 99
2019-11-03 02:00:00 10.4 15 Oeste 51 Oeste 0.8 -- -- 99
2019-11-03 01:00:00 10.6 12 Sudoeste 44 Sudoeste 0 -- -- 97
2019-11-03 00:00:00 10.9 16 Oeste 45 Sudoeste 0 -- -- 91
2019-11-02 23:00:00 11.1 16 Oeste 40 Sudoeste 0 -- -- 93
2019-11-02 22:00:00 11.2 12 Oeste 35 Sudoeste 0 -- -- 95
2019-11-02 21:00:00 11.8 11 Sudoeste 34 Oeste 0 -- -- 93
2019-11-02 20:00:00 11.9 14 Oeste 38 Oeste 0 -- -- 94
2019-11-02 19:00:00 12.1 14 Oeste 37 Oeste 3.4 -- -- 95
2019-11-02 18:00:00 13.4 13 Oeste 45 Sudoeste 0 -- -- 92
2019-11-02 17:00:00 13.4 12 Oeste 37 Sudoeste 0.6 -- -- 95
2019-11-02 16:00:00 13.9 10 Sudoeste 33 Oeste 0.2 -- -- 92
2019-11-02 15:00:00 13.6 12 Oeste 40 Oeste 1.6 -- -- 95
2019-11-02 14:00:00 13.6 9 Oeste 28 Oeste 1.6 -- -- 96
2019-11-02 13:00:00 13.6 12 Oeste 30 Oeste 1.2 -- -- 93
2019-11-02 12:00:00 13.4 12 Sudoeste 39 Oeste 0.4 -- -- 93
2019-11-02 11:00:00 13.7 10 Sudoeste 40 Oeste 0 -- -- 88
2019-11-02 10:00:00 13.3 13 Oeste 35 Noroeste 0 -- -- 92
2019-11-02 09:00:00 13.2 13 Sudoeste 41 Oeste 0 -- -- 92
2019-11-02 08:00:00 13.1 12 Oeste 47 Sur 0.2 -- -- 93
2019-11-02 07:00:00 13.2 10 Oeste 54 Sudoeste 0.2 -- -- 96
2019-11-02 06:00:00 13.5 13 Oeste 33 Oeste 0.2 -- -- 94
2019-11-02 05:00:00 13.7 11 Oeste 36 Oeste 0 -- -- 93
2019-11-02 04:00:00 13.8 9 Sudoeste 34 Oeste 0 -- -- 93
2019-11-02 03:00:00 13.8 12 Oeste 39 Sudoeste 0 -- -- 94
2019-11-02 02:00:00 13.9 14 Oeste 42 Noroeste 0 -- -- 95
2019-11-02 01:00:00 14.3 14 Oeste 42 Oeste 0 -- -- 93
2019-11-02 00:00:00 14.4 15 Oeste 45 Oeste 0 -- -- 93
2019-11-01 23:00:00 14.5 13 Oeste 39 Sudoeste 0 -- -- 93
2019-11-01 22:00:00 14.9 13 Oeste 46 Oeste 0 -- -- 91
2019-11-01 21:00:00 15.3 12 Oeste 45 Noroeste 0 -- -- 87
2019-11-01 20:00:00 15.5 15 Oeste 37 Oeste 0 -- -- 88
2019-11-01 19:00:00 15.7 15 Oeste 41 Noroeste 0 -- -- 88
2019-11-01 18:00:00 15.7 15 Oeste 35 Oeste 0.2 -- -- 89
2019-11-01 17:00:00 16.6 11 Oeste 37 Sudoeste 0 -- -- 83
2019-11-01 16:00:00 16.8 12 Oeste 39 Sudoeste 0.2 -- -- 87
2019-11-01 15:00:00 16.5 15 Oeste 35 Oeste 1 -- -- 90
2019-11-01 14:00:00 16.9 10 Oeste 33 Oeste 0 -- -- 90
2019-11-01 13:00:00 16.9 8 Oeste 28 Oeste 0 -- -- 89
2019-11-01 12:00:00 15.4 11 Sudoeste 26 Sudoeste 0 -- -- 97
2019-11-01 11:00:00 15.6 9 Sudoeste 24 Sur 0 -- -- 95
2019-11-01 10:00:00 15.3 6 Oeste 20 Oeste 0 -- -- 96
2019-11-01 09:00:00 14.6 7 Sudoeste 18 Oeste 0 -- -- 97
2019-11-01 08:00:00 14.4 4 Oeste 17 Sudoeste 0 -- -- 96
2019-11-01 07:00:00 14.5 5 Sudoeste 14 Oeste 0 -- -- 97
2019-11-01 06:00:00 14.5 6 Oeste 13 Oeste 0 -- -- 96
2019-11-01 05:00:00 14.5 5 Sudoeste 22 Oeste 0 -- -- 96
2019-11-01 04:00:00 14.7 7 Sudoeste 18 Sudoeste 0 -- -- 96
2019-11-01 03:00:00 14.3 4 Sudoeste 17 Noroeste 0 -- -- 97
2019-11-01 02:00:00 14.7 8 Sudoeste 17 Oeste 0 -- -- 96
2019-11-01 01:00:00 15 8 Oeste 23 Oeste 0 -- -- 97
2019-11-01 00:00:00 15.4 7 Oeste 21 Oeste 0 -- -- 97
2019-10-31 23:00:00 15.3 4 Sudoeste 18 Noroeste 0 -- -- 96
2019-10-31 22:00:00 15.5 3 Oeste 13 Sudoeste 0 -- -- 96
2019-10-31 21:00:00 15.8 5 Sudoeste 14 Oeste 0 -- -- 95
2019-10-31 20:00:00 15.9 4 Oeste 24 Sudoeste 0 -- -- 95
2019-10-31 19:00:00 16.4 5 Oeste 21 Sudoeste 0 -- -- 87
2019-10-31 18:00:00 16.9 5 Sudoeste 17 Sudoeste 0 -- -- 83
2019-10-31 17:00:00 17.1 8 Sudoeste 22 Sudoeste 0 -- -- 77
2019-10-31 16:00:00 17.7 8 Sudoeste 17 Oeste 0 -- -- 73
2019-10-31 15:00:00 17.3 6 Sudoeste 15 Sudoeste 0 -- -- 72
2019-10-31 14:00:00 17.5 7 Sudoeste 18 Sudoeste 0 -- -- 73
2019-10-31 13:00:00 17.7 8 Sudoeste 17 Oeste 0 -- -- 75
2019-10-31 12:00:00 18.1 6 Oeste 14 Oeste 0 -- -- 72
2019-10-31 11:00:00 16.9 4 Oeste 12 Oeste 0 -- -- 78
2019-10-31 10:00:00 15.7 4 Oeste 14 Oeste 0 -- -- 83
2019-10-31 09:00:00 14.3 7 Sudoeste 18 Sudoeste 0 -- -- 88
2019-10-31 08:00:00 13.9 8 Sudoeste 20 Sur 0 -- -- 93
2019-10-31 07:00:00 14.1 4 Sudoeste 17 Sudoeste 0 -- -- 94
2019-10-31 06:00:00 14.1 6 Oeste 13 Oeste 0 -- -- 95
2019-10-31 05:00:00 14.3 8 Oeste 20 Oeste 0 -- -- 96
2019-10-31 04:00:00 14.3 5 Sudoeste 13 Oeste 0 -- -- 97
2019-10-31 03:00:00 14.5 5 Oeste 17 Sudoeste 0 -- -- 99
2019-10-31 02:00:00 14.7 6 Oeste 17 Sudoeste 0 -- -- 97
2019-10-31 01:00:00 14.7 6 Sudoeste 18 Oeste 0 -- -- 97
2019-10-31 00:00:00 14.7 6 Sudoeste 15 Oeste 0 -- -- 96
2019-10-30 23:00:00 14.8 8 Sudoeste 15 Sudoeste 0 -- -- 95
2019-10-30 22:00:00 14.9 4 Oeste 20 Sudoeste 0 -- -- 92
2019-10-30 21:00:00 15.3 6 Sudoeste 18 Oeste 0 -- -- 88
2019-10-30 20:00:00 15.4 6 Sudoeste 21 Oeste 0 -- -- 85
2019-10-30 19:00:00 15.2 6 Oeste 19 Oeste 0 -- -- 83
2019-10-30 18:00:00 15.3 8 Sudoeste 23 Oeste 0 -- -- 79
2019-10-30 17:00:00 15.4 4 Noroeste 14 Noroeste 0 -- -- 84
2019-10-30 16:00:00 15.1 3 Oeste 17 Sudoeste 0 -- -- 85
2019-10-30 15:00:00 16.9 5 Oeste 19 Oeste 0 -- -- 74
2019-10-30 14:00:00 17.8 6 Noroeste 18 Noroeste 0 -- -- 69
2019-10-30 13:00:00 18.8 6 Noroeste 15 Noroeste 0 -- -- 65
2019-10-30 12:00:00 18.2 4 Noroeste 13 Noroeste 0 -- -- 67
2019-10-30 11:00:00 16.6 4 Noroeste 8 Noroeste 0 -- -- 79
2019-10-30 10:00:00 15.1 0 Calma 10 Sur 0 -- -- 88
2019-10-30 09:00:00 13.7 5 Sudoeste 12 Sudoeste 0 -- -- 92
2019-10-30 08:00:00 11.3 4 Sudoeste 9 Sudoeste 0 -- -- 97
2019-10-30 07:00:00 12 5 Sudoeste 9 Sudoeste 0 -- -- 94
2019-10-30 06:00:00 12.3 4 Sudoeste 8 Oeste 0 -- -- 94
2019-10-30 05:00:00 12.5 4 Sudoeste 8 Sudoeste 0 -- -- 91
2019-10-30 04:00:00 12.1 3 Sudoeste 5 Sudoeste 0 -- -- 93
2019-10-30 03:00:00 12.2 4 Sudoeste 7 Sudoeste 0 -- -- 92
2019-10-30 02:00:00 12.1 4 Sudoeste 6 Sudoeste 0 -- -- 92
2019-10-30 01:00:00 11.7 3 Sur 9 Sudoeste 0 -- -- 93
2019-10-30 00:00:00 11.3 4 Sur 8 Sudoeste 0 -- -- 91
2019-10-29 23:00:00 11.6 3 Sur 6 Sudoeste 0 -- -- 91
2019-10-29 22:00:00 11.9 4 Sudoeste 6 Sur 0 -- -- 93
2019-10-29 21:00:00 12.2 4 Sudoeste 8 Sudoeste 0 -- -- 90
2019-10-29 20:00:00 13.3 5 Sudoeste 10 Sudoeste 0 -- -- 85
2019-10-29 19:00:00 13.4 5 Sudoeste 9 Sudoeste 0 -- -- 83
2019-10-29 18:00:00 14.9 4 Sudoeste 9 Oeste 0 -- -- 77
2019-10-29 17:00:00 16.6 2 Sudoeste 12 Sudoeste 0 -- -- 70
2019-10-29 16:00:00 18.5 6 Oeste 16 Oeste 0 -- -- 62
2019-10-29 15:00:00 18.1 6 Noroeste 14 Noroeste -- -- -- 68
2019-10-29 14:00:00 16.4 3 Noroeste 12 Sudoeste 0.2 -- -- 77
2019-10-29 13:00:00 16.3 3 Sudoeste 12 Sur 0 -- -- 80
2019-10-29 12:00:00 14.7 4 Noroeste 10 Noroeste 0 -- -- 91
2019-10-29 11:00:00 13.9 5 Noroeste 13 Noroeste 0.2 -- -- 97
2019-10-29 10:00:00 14.3 4 Noroeste 8 Noroeste 0 -- -- 94
2019-10-29 09:00:00 13.3 3 Sur 7 Sudoeste 0 -- -- 96
2019-10-29 08:00:00 13.2 0 Calma 10 Oeste 0 -- -- 97
2019-10-29 07:00:00 13.2 4 Oeste 13 Sudoeste 0.2 -- -- 96
2019-10-29 06:00:00 13.4 4 Sudoeste 12 Sudoeste 0 -- -- 97
2019-10-29 05:00:00 13.3 4 Sudoeste 16 Oeste 0 -- -- 97
2019-10-29 04:00:00 13.3 3 Sudoeste 10 Oeste 0 -- -- 96
2019-10-29 03:00:00 13.7 5 Sudoeste 13 Sudoeste 0 -- -- 93
2019-10-29 02:00:00 13.4 7 Sudoeste 11 Sudoeste 0 -- -- 93
2019-10-29 01:00:00 11.7 4 Sudoeste 10 Sudoeste 0 -- -- 93
2019-10-29 00:00:00 11.2 4 Sudoeste 10 Sur 0 -- -- 92
2019-10-28 23:00:00 11.2 3 Sur 5 Sudoeste 0 -- -- 92
2019-10-28 22:00:00 11.2 2 Oeste 7 Sur 0 -- -- 90
2019-10-28 21:00:00 11.6 3 Sur 5 Sudeste 0 -- -- 90
2019-10-28 20:00:00 12.7 2 Sudoeste 8 Sudoeste 0 -- -- 86
2019-10-28 19:00:00 14.1 3 Sudoeste 12 Sudoeste 0 -- -- 81
2019-10-28 18:00:00 15.5 5 Sudoeste 10 Sudoeste 0 -- -- 75
2019-10-28 17:00:00 17.1 6 Oeste 16 Sudoeste 0 -- -- 69
2019-10-28 16:00:00 18.9 8 Noroeste 21 Noroeste 0 -- -- 65
2019-10-28 15:00:00 19.3 5 Noroeste 13 Noroeste 0 -- -- 64
2019-10-28 14:00:00 19.2 5 Noroeste 14 Oeste 0 -- -- 63
2019-10-28 13:00:00 19.3 6 Norte 14 Norte 0 -- -- 56
2019-10-28 12:00:00 18.1 5 Noroeste 15 Sudeste 0 -- -- 57
2019-10-28 11:00:00 17 3 Oeste 8 Oeste 0 -- -- 60
2019-10-28 10:00:00 13.7 2 Sur 6 Sur 0 -- -- 76
2019-10-28 09:00:00 10.8 3 Sur 5 Sudeste 0 -- -- 84
2019-10-28 08:00:00 10.6 3 Sur 7 Sudoeste 0 -- -- 82
2019-10-28 07:00:00 11.2 3 Sur 6 Sur 0 -- -- 80
2019-10-28 06:00:00 12 3 Sudeste 5 Sur 0 -- -- 79
2019-10-28 05:00:00 12.3 3 Sudeste 6 Sur 0 -- -- 77
2019-10-28 04:00:00 12.8 3 Sur 7 Sudoeste 0 -- -- 75
2019-10-28 03:00:00 13.3 3 Sur 6 Sudoeste 0 -- -- 72
2019-10-28 02:00:00 13.7 2 Sur 8 Sudoeste 0 -- -- 69
2019-10-28 01:00:00 13.7 6 Sudoeste 9 Sudoeste 0 -- -- 68
2019-10-28 00:00:00 14.2 3 Sudeste 9 Sudoeste 0 -- -- 62
2019-10-27 23:00:00 15.4 5 Sur 14 Sur 0 -- -- 57
2019-10-27 22:00:00 13.8 3 Sur 7 Sur 0 -- -- 67
2019-10-27 21:00:00 14.6 4 Sur 8 Sur 0 -- -- 65
2019-10-27 20:00:00 14.5 4 Sur 7 Sudeste 0 -- -- 65
2019-10-27 19:00:00 15 4 Sur 7 Sudoeste 0 -- -- 63
2019-10-27 18:00:00 16.1 3 Sur 8 Sur 0 -- -- 66
2019-10-27 17:00:00 20.3 0 Calma 9 Oeste 0 -- -- 54
2019-10-27 16:00:00 21.2 0 Calma 10 Oeste 0 -- -- 50
2019-10-27 15:00:00 22.7 3 Noroeste 11 Noroeste 0 -- -- 39
2019-10-27 14:00:00 22.4 4 Noroeste 12 Noroeste 0 -- -- 40
2019-10-27 13:00:00 21.2 4 Noroeste 10 Oeste 0 -- -- 45
2019-10-27 12:00:00 20.3 0 Calma 8 Oeste 0 -- -- 51
2019-10-27 11:00:00 18.5 4 Sudeste 10 Sur 0 -- -- 56
2019-10-27 10:00:00 14.8 6 Sudeste 12 Sudeste 0 -- -- 63
2019-10-27 09:00:00 13.7 6 Sudeste 10 Sudeste 0 -- -- 65
2019-10-27 08:00:00 12.2 5 Sur 11 Sur 0 -- -- 69
2019-10-27 07:00:00 13.9 9 Sur 15 Sur 0 -- -- 58
2019-10-27 06:00:00 13.1 9 Sudeste 12 Sudeste 0 -- -- 57
2019-10-27 05:00:00 11.5 3 Sur 7 Sudeste 0 -- -- 68
2019-10-27 04:00:00 11.3 5 Sur 9 Sudeste 0 -- -- 71
2019-10-27 03:00:00 11.3 5 Sur 8 Sur 0 -- -- 72
2019-10-27 02:00:00 11.6 6 Sur 8 Sur 0 -- -- 72
2019-10-27 01:00:00 11.7 5 Sur 8 Sudeste 0 -- -- 72
2019-10-27 00:00:00 11.8 5 Sur 8 Sur 0 -- -- 70
2019-10-26 23:00:00 11.6 5 Sur 8 Sudeste 0 -- -- 69
2019-10-26 22:00:00 12.1 5 Sur 8 Sur 0 -- -- 74
2019-10-26 21:00:00 12.4 6 Sur 9 Sur 0 -- -- 73
2019-10-26 20:00:00 13 3 Sur 9 Sur 0 -- -- 72
2019-10-26 19:00:00 14.1 5 Sur 8 Sudeste 0 -- -- 66
2019-10-26 18:00:00 17.3 3 Sudeste 10 Sur 0 -- -- 55
2019-10-26 17:00:00 21.7 3 Sudeste 10 Sudeste 0 -- -- 45
2019-10-26 16:00:00 22.3 2 Sudeste 8 Sur 0 -- -- 43
2019-10-26 15:00:00 21.8 4 Sur 8 Sudeste 0 -- -- 43
2019-10-26 14:00:00 21 3 Sudeste 12 Nordeste 0 -- -- 47
2019-10-26 13:00:00 19.8 4 Oeste 13 Este 0 -- -- 49
2019-10-26 12:00:00 18.8 3 Noroeste 8 Noroeste 0 -- -- 53
2019-10-26 11:00:00 16.6 4 Sudoeste 16 Sudeste 0 -- -- 53
2019-10-26 10:00:00 12.5 4 Sudeste 13 Sudeste 0 -- -- 64
2019-10-26 09:00:00 10.2 0 Calma 6 Sudeste 0 -- -- 75
2019-10-26 08:00:00 10 5 Sudeste 9 Sur 0 -- -- 77
2019-10-26 07:00:00 10.4 4 Sur 7 Oeste 0 -- -- 74
2019-10-26 06:00:00 10.4 4 Sur 8 Sudeste 0 -- -- 79
2019-10-26 05:00:00 10.5 5 Sur 8 Sudeste 0 -- -- 78
2019-10-26 04:00:00 11.4 3 Sur 14 Sur 0 -- -- 75
2019-10-26 03:00:00 13.2 10 Sur 15 Sur 0 -- -- 66
2019-10-26 02:00:00 14.7 10 Sudeste 24 Sur 0 -- -- 64
2019-10-26 01:00:00 15.6 14 Sur 22 Sur 0 -- -- 62
2019-10-26 00:00:00 14.8 10 Sur 17 Sudeste 0 -- -- 63
2019-10-25 23:00:00 13.2 9 Sur 15 Sudeste 0 -- -- 70
2019-10-25 22:00:00 11.9 6 Sur 10 Sur 0 -- -- 78
2019-10-25 21:00:00 12.5 5 Sur 10 Sudeste 0 -- -- 76
2019-10-25 20:00:00 12.5 7 Sur 11 Sur 0 -- -- 75
2019-10-25 19:00:00 13.8 6 Sudeste 10 Sudeste 0 -- -- 71
2019-10-25 18:00:00 16.3 3 Sur 6 Este 0 -- -- 66
2019-10-25 17:00:00 20.8 3 Nordeste 12 Norte 0 -- -- 48
2019-10-25 16:00:00 21.2 3 Este 10 Oeste 0 -- -- 52
2019-10-25 15:00:00 20.6 3 Sudeste 7 Sudeste 0 -- -- 49
2019-10-25 14:00:00 19.8 3 Este 7 Este 0 -- -- 53
2019-10-25 13:00:00 17.9 3 Oeste 8 Noroeste 0 -- -- 55
2019-10-25 12:00:00 16.1 0 Calma 8 Sur 0 -- -- 63
2019-10-25 11:00:00 12.5 3 Noroeste 8 Sudeste 0 -- -- 75
2019-10-25 10:00:00 8.4 5 Sur 8 Sudeste 0 -- -- 83
2019-10-25 09:00:00 7.9 5 Sur 8 Sudeste 0 -- -- 85
2019-10-25 08:00:00 7.4 5 Sur 8 Sudeste 0 -- -- 86
2019-10-25 07:00:00 7.3 5 Sur 8 Sur 0 -- -- 89
2019-10-25 06:00:00 7.3 4 Sur 7 Sudeste 0 -- -- 90
2019-10-25 05:00:00 7.2 5 Sur 7 Sur 0 -- -- 92
2019-10-25 04:00:00 7.4 5 Sur 8 Sur 0 -- -- 93
2019-10-25 03:00:00 7.5 5 Sur 7 Sudeste 0 -- -- 93
2019-10-25 02:00:00 7.7 5 Sur 8 Sur 0 -- -- 93
2019-10-25 01:00:00 7.7 5 Sur 7 Sur 0 -- -- 92
2019-10-25 00:00:00 7.8 6 Sur 8 Sur 0 -- -- 93
2019-10-24 23:00:00 7.8 4 Sur 8 Sur 0 -- -- 93
2019-10-24 22:00:00 8.1 6 Sur 8 Sudeste 0 -- -- 92
2019-10-24 21:00:00 8.4 5 Sur 6 Sur 0 -- -- 91
2019-10-24 20:00:00 9.1 4 Sur 7 Oeste 0 -- -- 87
2019-10-24 19:00:00 11 3 Sudoeste 10 Oeste 0 -- -- 79
2019-10-24 18:00:00 14.3 3 Oeste 10 Noroeste 0 -- -- 65
2019-10-24 17:00:00 15 4 Oeste 15 Oeste 0 -- -- 60
2019-10-24 16:00:00 14.7 5 Oeste 13 Noroeste 0 -- -- 63
2019-10-24 15:00:00 13.5 3 Noroeste 12 Oeste 0 -- -- 65
2019-10-24 14:00:00 12.4 6 Noroeste 15 Noroeste 0 -- -- 66
2019-10-24 13:00:00 11.6 6 Noroeste 12 Oeste 0 -- -- 70
2019-10-24 12:00:00 10.4 7 Oeste 16 Oeste 0 -- -- 76
2019-10-24 11:00:00 8.8 5 Oeste 11 Oeste 0 -- -- 85
2019-10-24 10:00:00 6 4 Sudoeste 10 Sudoeste 0 -- -- 94
2019-10-24 09:00:00 5.1 4 Sudoeste 12 Sudoeste 0 -- -- 97
2019-10-24 08:00:00 5.3 5 Sudoeste 12 Sudoeste 0 -- -- 98
2019-10-24 07:00:00 6.2 4 Sudoeste 14 Sudoeste 0 -- -- 98
2019-10-24 06:00:00 6.3 8 Sudoeste 16 Sudoeste 0 -- -- 97
2019-10-24 05:00:00 6.7 5 Sudoeste 15 Sudoeste 0 -- -- 97
2019-10-24 04:00:00 6.4 5 Sudoeste 16 Sudoeste 0 -- -- 95
2019-10-24 03:00:00 6.6 6 Oeste 17 Sudoeste 0 -- -- 95
2019-10-24 02:00:00 7 5 Sudoeste 19 Oeste 0 -- -- 96
2019-10-24 01:00:00 7.2 5 Sudoeste 18 Oeste 0 -- -- 95
2019-10-24 00:00:00 7.2 8 Sudoeste 19 Sudoeste 0 -- -- 96
2019-10-23 23:00:00 7 6 Sudoeste 18 Oeste 0 -- -- 98
2019-10-23 22:00:00 7.1 8 Oeste 18 Oeste 0 -- -- 98
2019-10-23 21:00:00 7.1 6 Sudoeste 20 Oeste 0 -- -- 96
2019-10-23 20:00:00 7.2 9 Sudoeste 27 Oeste 0 -- -- 99
2019-10-23 19:00:00 7.4 9 Oeste 21 Sudoeste 0.2 -- -- 100
2019-10-23 18:00:00 7.7 7 Oeste 25 Oeste 0.8 -- -- 99
2019-10-23 17:00:00 7.7 6 Oeste 17 Sudoeste 0 -- -- 96
2019-10-23 16:00:00 8 6 Oeste 15 Oeste 0 -- -- 94
2019-10-23 15:00:00 7.8 6 Oeste 17 Noroeste 0 -- -- 95
2019-10-23 14:00:00 7.1 6 Oeste 18 Oeste 0 -- -- 98
2019-10-23 13:00:00 7.2 5 Oeste 16 Oeste 0.2 -- -- 98
2019-10-23 12:00:00 6.5 4 Oeste 13 Oeste 1 -- -- 99
2019-10-23 11:00:00 6.4 5 Oeste 19 Sudoeste 0.4 -- -- 98
2019-10-23 10:00:00 6.3 7 Sudoeste 19 Oeste 0 -- -- 97
2019-10-23 09:00:00 6 5 Sudoeste 14 Oeste 0.2 -- -- 98
2019-10-23 08:00:00 5.9 5 Sudoeste 15 Oeste 0.2 -- -- 98
2019-10-23 07:00:00 5.8 5 Oeste 17 Sudoeste 0.2 -- -- 97
2019-10-23 06:00:00 6 4 Oeste 16 Sudoeste 0.2 -- -- 93
2019-10-23 05:00:00 6.6 6 Sudoeste 11 Sudoeste 0 -- -- 90
2019-10-23 04:00:00 6.3 3 Sur 6 Sur 0 -- -- 92
2019-10-23 03:00:00 6.3 2 Sudeste 10 Sudeste 0 -- -- 89
2019-10-23 02:00:00 7.3 4 Sur 12 Oeste 0 -- -- 81
2019-10-23 01:00:00 6.4 4 Sudoeste 8 Sudoeste 0 -- -- 90
2019-10-23 00:00:00 6.8 4 Sudoeste 8 Sur 0 -- -- 83
2019-10-22 23:00:00 6.4 4 Sur 7 Sur 0 -- -- 87
2019-10-22 22:00:00 6.8 3 Sudeste 6 Sur 0 -- -- 84
2019-10-22 21:00:00 7.8 4 Sur 16 Nordeste 0 -- -- 80
2019-10-22 20:00:00 8.3 5 Nordeste 19 Este 0 -- -- 79
2019-10-22 19:00:00 9 5 Norte 21 Nordeste 0 -- -- 79
2019-10-22 18:00:00 11 7 Nordeste 23 Nordeste 0 -- -- 71
2019-10-22 17:00:00 13 8 Norte 24 Nordeste 0 -- -- 65
2019-10-22 16:00:00 12.2 8 Norte 23 Nordeste 0 -- -- 67
2019-10-22 15:00:00 11.1 9 Nordeste 21 Nordeste 0 -- -- 68
2019-10-22 14:00:00 10.2 8 Nordeste 23 Este 0 -- -- 72
2019-10-22 13:00:00 10.3 8 Este 19 Este 0.2 -- -- 71
2019-10-22 12:00:00 10.3 5 Norte 15 Este 0 -- -- 76
2019-10-22 11:00:00 8.9 4 Nordeste -- -- 1 -- -- 84
2019-10-22 10:00:00 7.8 7 Sur 22 Norte 1 -- -- 82
2019-10-22 09:00:00 8 6 Nordeste 20 Este 0 -- -- 74
2019-10-22 08:00:00 7.7 7 Sur 20 Nordeste 0 -- -- 76
2019-10-22 07:00:00 7.4 6 Sur 18 Nordeste 0 -- -- 79
2019-10-22 06:00:00 7.2 6 Sur 17 Nordeste 0 -- -- 79
2019-10-22 05:00:00 6.7 8 Sur 18 Sudeste 0 -- -- 82
2019-10-22 04:00:00 7.4 5 Sudeste 18 Sudeste 0 -- -- 80
2019-10-22 03:00:00 7.4 5 Sudeste 15 Sur 0 -- -- 82
2019-10-22 02:00:00 6.9 3 Sur 10 Sudeste 0 -- -- 87
2019-10-22 01:00:00 7.9 6 Sur 15 Sudeste 0 -- -- 81
2019-10-22 00:00:00 7.9 5 Sur 16 Sur 0 -- -- 81
2019-10-21 23:00:00 8.3 6 Sudeste 17 Sur 0 -- -- 75
2019-10-21 22:00:00 8.2 10 Sur 18 Sur 0 -- -- 74
2019-10-21 21:00:00 7.1 5 Sur 12 Sur 0 -- -- 89
2019-10-21 20:00:00 7.9 7 Sudeste 11 Sudeste 0 -- -- 84
2019-10-21 19:00:00 9.4 4 Sur 9 Sur 0 -- -- 81
2019-10-21 18:00:00 12 0 Calma 6 Oeste 0 -- -- 76
2019-10-21 17:00:00 11.5 2 Norte 8 Noroeste 0 -- -- 74
2019-10-21 16:00:00 9.7 3 Nordeste 17 Sur 0.8 -- -- 82
2019-10-21 15:00:00 6.9 4 Sur 9 Sudeste 1.4 -- -- 96
2019-10-21 14:00:00 7.5 5 Sudeste 19 Sudeste 2 -- -- 88
2019-10-21 13:00:00 9.9 3 Norte 12 Norte 0 -- -- 79
2019-10-21 12:00:00 9.1 0 Calma 6 Nordeste 0 -- -- 85
2019-10-21 11:00:00 8.9 0 Calma 10 Sudeste 0 -- -- 90
2019-10-21 10:00:00 5.7 3 Sur 9 Sudeste 0 -- -- 94
2019-10-21 09:00:00 4.8 5 Sur 8 Sudeste 0 -- -- 96
2019-10-21 08:00:00 4.6 5 Sur 8 Sudeste 0 -- -- 96
2019-10-21 07:00:00 4.8 5 Sudeste 7 Sur 0 -- -- 96
2019-10-21 06:00:00 4.9 5 Sur 8 Sudeste 0 -- -- 96
2019-10-21 05:00:00 5 6 Sur 8 Sur 0 -- -- 96
2019-10-21 04:00:00 5.1 5 Sur 7 Sur 0 -- -- 96
2019-10-21 03:00:00 5.4 6 Sur 8 Sur 0 -- -- 96
2019-10-21 02:00:00 5.5 4 Sur 7 Sur 0 -- -- 95
2019-10-21 01:00:00 5.7 5 Sur 6 Sudoeste 0 -- -- 95
2019-10-21 00:00:00 5.8 4 Sur 8 Sudoeste 0 -- -- 93
2019-10-20 23:00:00 6.3 4 Sur 9 Oeste 0 -- -- 92
2019-10-20 22:00:00 7.2 5 Sudoeste 11 Sur 0 -- -- 87
2019-10-20 21:00:00 8.4 6 Sudoeste 16 Oeste 0 -- -- 80
2019-10-20 20:00:00 8.9 5 Sudoeste 13 Oeste 0 -- -- 80
2019-10-20 19:00:00 9.5 6 Sudoeste 19 Sur 0 -- -- 80
2019-10-20 18:00:00 10.6 6 Oeste 22 Oeste 0 -- -- 77
2019-10-20 17:00:00 10.8 7 Oeste 21 Oeste 0 -- -- 78
2019-10-20 16:00:00 9.5 9 Oeste 24 Sur 0 -- -- 83
2019-10-20 15:00:00 8.5 6 Oeste 26 Oeste 0 -- -- 87
2019-10-20 14:00:00 7.7 8 Sudoeste 25 Sudoeste 0 -- -- 90
2019-10-20 13:00:00 6.8 8 Oeste 24 Oeste 0 -- -- 95
2019-10-20 12:00:00 6.7 8 Oeste 22 Oeste 0 -- -- 95
2019-10-20 11:00:00 6.6 8 Oeste 19 Sudoeste 0.4 -- -- 100
2019-10-20 10:00:00 6.5 6 Sudoeste 28 Oeste 0.4 -- -- 100
2019-10-20 09:00:00 6.5 8 Sudoeste 24 Sudoeste 0 -- -- 100
2019-10-20 08:00:00 6.6 7 Oeste 18 Oeste 1.4 -- -- 99
2019-10-20 07:00:00 6.6 7 Oeste 30 Oeste 0 -- -- 95
2019-10-20 06:00:00 7 8 Oeste 26 Sudoeste 0.4 -- -- 96
2019-10-20 05:00:00 7.3 8 Oeste 28 Noroeste 0 -- -- 94
2019-10-20 04:00:00 7.6 9 Noroeste 28 Oeste 0 -- -- 92
2019-10-20 03:00:00 8.1 10 Oeste 27 Sudoeste 0 -- -- 93
2019-10-20 02:00:00 8.6 10 Oeste 27 Oeste 0 -- -- 93
2019-10-20 01:00:00 9 9 Oeste 31 Sudoeste 0 -- -- 96
2019-10-20 00:00:00 9.5 13 Oeste 38 Oeste 0 -- -- 93
2019-10-19 23:00:00 10.8 11 Oeste 45 Sudoeste 1 -- -- 92
2019-10-19 22:00:00 12.3 12 Oeste 56 Oeste 0.8 -- -- 87
2019-10-19 21:00:00 12.8 23 Oeste 47 Sudoeste 4.4 -- -- 87
2019-10-19 20:00:00 12.7 9 Sudoeste 28 Oeste 9.6 -- -- 93
2019-10-19 19:00:00 14.2 9 Norte 27 Nordeste 0 -- -- 81
2019-10-19 18:00:00 14.8 5 Noroeste 19 Sudoeste 0 -- -- 79
2019-10-19 17:00:00 14 8 Oeste 26 Noroeste 0 -- -- 81
2019-10-19 16:00:00 13 6 Noroeste 24 Nordeste 0 -- -- 91
2019-10-19 15:00:00 11.7 8 Norte 23 Nordeste 0 -- -- 94
2019-10-19 14:00:00 11.2 8 Este 20 Este 0.4 -- -- 93
2019-10-19 13:00:00 11.3 5 Sudeste 16 Este 0.4 -- -- 89
2019-10-19 12:00:00 12.8 4 Oeste 17 Sudoeste 0 -- -- 76
2019-10-19 11:00:00 12.8 3 Norte 14 Sudeste 0 -- -- 72
2019-10-19 10:00:00 10.6 3 Oeste 18 Sur 0 -- -- 79
2019-10-19 09:00:00 9.4 7 Sudoeste 17 Oeste 0 -- -- 80
2019-10-19 08:00:00 9.7 8 Oeste 26 Sudoeste 0 -- -- 81
2019-10-19 07:00:00 10.1 6 Oeste 25 Sudeste 0 -- -- 82
2019-10-19 06:00:00 10.3 7 Noroeste 19 Oeste 0 -- -- 81
2019-10-19 05:00:00 10.8 8 Oeste 26 Oeste 0 -- -- 80
2019-10-19 04:00:00 11.1 7 Sudoeste 26 Sudeste 0 -- -- 77
2019-10-19 03:00:00 11.5 6 Oeste 26 Oeste 0 -- -- 78
2019-10-19 02:00:00 11.9 7 Sudoeste 28 Oeste 0 -- -- 78
2019-10-19 01:00:00 11.8 7 Sudoeste 18 Sudoeste 0 -- -- 82
2019-10-19 00:00:00 10.9 3 Sudoeste 21 Oeste 0 -- -- 86
2019-10-18 23:00:00 11.6 5 Sudoeste 18 Noroeste 0 -- -- 83
2019-10-18 22:00:00 12.4 8 Sudoeste 19 Oeste 0 -- -- 78
2019-10-18 21:00:00 13.2 9 Sudoeste 26 Oeste 0 -- -- 73
2019-10-18 20:00:00 13.5 8 Sur 23 Noroeste 0 -- -- 75
2019-10-18 19:00:00 14.5 7 Noroeste 21 Oeste 0 -- -- 72
2019-10-18 18:00:00 16.5 9 Oeste 31 Oeste 0 -- -- 68
2019-10-18 17:00:00 17.7 11 Oeste 32 Oeste 0 -- -- 65
2019-10-18 16:00:00 17.9 9 Sudoeste 25 Oeste 0 -- -- 68
2019-10-18 15:00:00 17.8 9 Sudoeste 25 Sudoeste 0 -- -- 71
2019-10-18 14:00:00 16 10 Sudoeste 33 Oeste 0 -- -- 75
2019-10-18 13:00:00 16.2 10 Sudoeste 29 Oeste 0 -- -- 79
2019-10-18 12:00:00 15.5 7 Oeste 25 Oeste 0 -- -- 88
2019-10-18 11:00:00 14.8 8 Oeste 21 Sudoeste 0 -- -- 95
2019-10-18 10:00:00 14.4 6 Oeste 27 Oeste 0 -- -- 96
2019-10-18 09:00:00 14.3 11 Sudoeste 33 Noroeste 0.2 -- -- 97
2019-10-18 08:00:00 14.4 8 Oeste 24 Oeste 0 -- -- 96
2019-10-18 07:00:00 14.4 8 Oeste 32 Oeste 0 -- -- 95
2019-10-18 06:00:00 14 7 Sudoeste 27 Oeste 0 -- -- 96
2019-10-18 05:00:00 14.3 9 Oeste 29 Sudoeste 0 -- -- 93
2019-10-18 04:00:00 14.3 7 Oeste 23 Sur 0 -- -- 95
2019-10-18 03:00:00 14.6 7 Sudoeste 19 Noroeste 0 -- -- 94
2019-10-18 02:00:00 14.5 5 Oeste 26 Oeste 0 -- -- 96
2019-10-18 01:00:00 14.6 11 Oeste 27 Noroeste 0 -- -- 98
2019-10-18 00:00:00 14.5 10 Sudoeste 28 Oeste 0 -- -- 97